sensor_id;sensor_type;location;lat;lon;timestamp;P1;durP1;ratioP1;P2;durP2;ratioP2
14153;SDS011;7157;53.144;7.570;2023-05-14T00:01:53;14.18;;;8.30;;
14153;SDS011;7157;53.144;7.570;2023-05-14T00:11:58;14.23;;;9.15;;
14153;SDS011;7157;53.144;7.570;2023-05-14T00:22:01;22.02;;;9.25;;
14153;SDS011;7157;53.144;7.570;2023-05-14T00:32:06;14.40;;;8.73;;
14153;SDS011;7157;53.144;7.570;2023-05-14T00:42:09;14.70;;;9.02;;
14153;SDS011;7157;53.144;7.570;2023-05-14T00:52:14;16.58;;;9.68;;
14153;SDS011;7157;53.144;7.570;2023-05-14T01:02:17;18.58;;;9.55;;
14153;SDS011;7157;53.144;7.570;2023-05-14T01:12:24;17.02;;;8.73;;
14153;SDS011;7157;53.144;7.570;2023-05-14T01:22:32;15.55;;;7.82;;
14153;SDS011;7157;53.144;7.570;2023-05-14T01:32:35;16.98;;;8.77;;
14153;SDS011;7157;53.144;7.570;2023-05-14T01:42:41;12.30;;;7.32;;
14153;SDS011;7157;53.144;7.570;2023-05-14T01:52:45;13.07;;;7.60;;
14153;SDS011;7157;53.144;7.570;2023-05-14T02:02:50;15.98;;;8.55;;
14153;SDS011;7157;53.144;7.570;2023-05-14T02:12:54;21.40;;;10.18;;
14153;SDS011;7157;53.144;7.570;2023-05-14T02:22:58;17.92;;;10.00;;
14153;SDS011;7157;53.144;7.570;2023-05-14T02:33:01;19.33;;;9.65;;
14153;SDS011;7157;53.144;7.570;2023-05-14T02:43:05;11.45;;;7.28;;
14153;SDS011;7157;53.144;7.570;2023-05-14T02:53:08;16.05;;;8.00;;
14153;SDS011;7157;53.144;7.570;2023-05-14T03:03:12;16.90;;;9.30;;
14153;SDS011;7157;53.144;7.570;2023-05-14T03:13:16;13.38;;;8.10;;
14153;SDS011;7157;53.144;7.570;2023-05-14T03:23:22;22.33;;;10.13;;
14153;SDS011;7157;53.144;7.570;2023-05-14T03:33:24;13.90;;;9.00;;
14153;SDS011;7157;53.144;7.570;2023-05-14T03:43:28;15.27;;;9.10;;
14153;SDS011;7157;53.144;7.570;2023-05-14T03:53:32;14.55;;;9.15;;
14153;SDS011;7157;53.144;7.570;2023-05-14T04:03:36;12.45;;;8.82;;
14153;SDS011;7157;53.144;7.570;2023-05-14T04:13:39;15.40;;;9.05;;
14153;SDS011;7157;53.144;7.570;2023-05-14T04:23:44;18.65;;;10.13;;
14153;SDS011;7157;53.144;7.570;2023-05-14T04:33:46;17.33;;;10.10;;
14153;SDS011;7157;53.144;7.570;2023-05-14T04:43:50;16.80;;;10.05;;
14153;SDS011;7157;53.144;7.570;2023-05-14T04:53:57;21.65;;;10.23;;
14153;SDS011;7157;53.144;7.570;2023-05-14T05:04:01;18.08;;;10.35;;
14153;SDS011;7157;53.144;7.570;2023-05-14T05:14:04;17.88;;;9.60;;
14153;SDS011;7157;53.144;7.570;2023-05-14T05:24:08;21.35;;;11.73;;
14153;SDS011;7157;53.144;7.570;2023-05-14T05:34:11;18.40;;;10.82;;
14153;SDS011;7157;53.144;7.570;2023-05-14T05:44:16;17.42;;;11.25;;
14153;SDS011;7157;53.144;7.570;2023-05-14T05:54:19;22.92;;;10.35;;
14153;SDS011;7157;53.144;7.570;2023-05-14T06:04:23;14.55;;;9.90;;
14153;SDS011;7157;53.144;7.570;2023-05-14T06:14:26;19.30;;;9.25;;
14153;SDS011;7157;53.144;7.570;2023-05-14T06:24:30;11.60;;;9.02;;
14153;SDS011;7157;53.144;7.570;2023-05-14T06:34:33;16.92;;;8.80;;
14153;SDS011;7157;53.144;7.570;2023-05-14T06:44:37;14.25;;;8.80;;
14153;SDS011;7157;53.144;7.570;2023-05-14T06:54:39;11.38;;;6.63;;
14153;SDS011;7157;53.144;7.570;2023-05-14T07:04:44;14.20;;;7.97;;
14153;SDS011;7157;53.144;7.570;2023-05-14T07:14:46;13.77;;;6.68;;
14153;SDS011;7157;53.144;7.570;2023-05-14T07:24:51;12.43;;;5.45;;
14153;SDS011;7157;53.144;7.570;2023-05-14T07:34:54;8.82;;;5.13;;
14153;SDS011;7157;53.144;7.570;2023-05-14T07:44:58;9.23;;;5.40;;
14153;SDS011;7157;53.144;7.570;2023-05-14T07:55:01;9.57;;;5.63;;
14153;SDS011;7157;53.144;7.570;2023-05-14T08:05:06;9.82;;;6.10;;
14153;SDS011;7157;53.144;7.570;2023-05-14T08:15:11;10.70;;;6.13;;
14153;SDS011;7157;53.144;7.570;2023-05-14T08:25:15;10.30;;;6.00;;
14153;SDS011;7157;53.144;7.570;2023-05-14T08:35:18;7.78;;;5.80;;
14153;SDS011;7157;53.144;7.570;2023-05-14T08:45:23;9.35;;;5.65;;
14153;SDS011;7157;53.144;7.570;2023-05-14T08:55:30;10.10;;;5.75;;
14153;SDS011;7157;53.144;7.570;2023-05-14T09:05:34;9.30;;;5.10;;
14153;SDS011;7157;53.144;7.570;2023-05-14T09:15:38;9.27;;;5.82;;
14153;SDS011;7157;53.144;7.570;2023-05-14T09:25:42;5.80;;;4.35;;
14153;SDS011;7157;53.144;7.570;2023-05-14T09:35:45;7.50;;;4.72;;
14153;SDS011;7157;53.144;7.570;2023-05-14T09:45:50;8.77;;;4.22;;
14153;SDS011;7157;53.144;7.570;2023-05-14T09:55:53;7.22;;;4.53;;
14153;SDS011;7157;53.144;7.570;2023-05-14T10:05:59;9.05;;;4.55;;
14153;SDS011;7157;53.144;7.570;2023-05-14T10:16:07;5.95;;;3.20;;
14153;SDS011;7157;53.144;7.570;2023-05-14T10:26:16;4.38;;;2.60;;
14153;SDS011;7157;53.144;7.570;2023-05-14T10:36:19;4.68;;;2.90;;
14153;SDS011;7157;53.144;7.570;2023-05-14T10:46:23;3.88;;;2.60;;
14153;SDS011;7157;53.144;7.570;2023-05-14T10:56:27;7.82;;;2.92;;
14153;SDS011;7157;53.144;7.570;2023-05-14T11:06:31;6.88;;;3.40;;
14153;SDS011;7157;53.144;7.570;2023-05-14T11:16:34;6.60;;;3.40;;
14153;SDS011;7157;53.144;7.570;2023-05-14T11:26:39;7.68;;;2.83;;
14153;SDS011;7157;53.144;7.570;2023-05-14T11:36:42;4.25;;;2.80;;
14153;SDS011;7157;53.144;7.570;2023-05-14T11:46:53;8.60;;;2.78;;
14153;SDS011;7157;53.144;7.570;2023-05-14T11:56:57;4.95;;;2.47;;
14153;SDS011;7157;53.144;7.570;2023-05-14T12:17:10;4.75;;;2.85;;
14153;SDS011;7157;53.144;7.570;2023-05-14T12:27:16;9.77;;;3.38;;
14153;SDS011;7157;53.144;7.570;2023-05-14T12:37:23;7.55;;;2.65;;
14153;SDS011;7157;53.144;7.570;2023-05-14T12:47:28;6.43;;;2.42;;
14153;SDS011;7157;53.144;7.570;2023-05-14T12:57:30;5.03;;;2.45;;
14153;SDS011;7157;53.144;7.570;2023-05-14T13:07:36;3.45;;;2.42;;
14153;SDS011;7157;53.144;7.570;2023-05-14T13:17:39;6.72;;;2.55;;
14153;SDS011;7157;53.144;7.570;2023-05-14T13:27:43;6.32;;;2.47;;
14153;SDS011;7157;53.144;7.570;2023-05-14T13:37:46;4.35;;;2.58;;
14153;SDS011;7157;53.144;7.570;2023-05-14T13:47:50;6.57;;;2.53;;
14153;SDS011;7157;53.144;7.570;2023-05-14T13:57:53;8.18;;;2.70;;
14153;SDS011;7157;53.144;7.570;2023-05-14T14:07:57;3.80;;;2.33;;
14153;SDS011;7157;53.144;7.570;2023-05-14T14:18:13;9.15;;;2.80;;
14153;SDS011;7157;53.144;7.570;2023-05-14T14:28:17;7.47;;;2.45;;
14153;SDS011;7157;53.144;7.570;2023-05-14T14:38:20;4.10;;;2.50;;
14153;SDS011;7157;53.144;7.570;2023-05-14T14:48:25;7.25;;;2.53;;
14153;SDS011;7157;53.144;7.570;2023-05-14T14:58:28;12.05;;;2.33;;
14153;SDS011;7157;53.144;7.570;2023-05-14T15:08:33;4.30;;;2.22;;
14153;SDS011;7157;53.144;7.570;2023-05-14T15:18:36;5.97;;;2.78;;
14153;SDS011;7157;53.144;7.570;2023-05-14T15:28:40;9.70;;;5.82;;
14153;SDS011;7157;53.144;7.570;2023-05-14T15:38:43;8.88;;;2.60;;
14153;SDS011;7157;53.144;7.570;2023-05-14T15:48:47;7.80;;;2.42;;
14153;SDS011;7157;53.144;7.570;2023-05-14T15:58:50;6.20;;;2.50;;
14153;SDS011;7157;53.144;7.570;2023-05-14T16:08:54;7.32;;;2.40;;
14153;SDS011;7157;53.144;7.570;2023-05-14T16:18:57;8.52;;;2.97;;
14153;SDS011;7157;53.144;7.570;2023-05-14T16:29:01;4.88;;;2.85;;
14153;SDS011;7157;53.144;7.570;2023-05-14T16:39:04;6.43;;;2.60;;
14153;SDS011;7157;53.144;7.570;2023-05-14T16:49:10;13.70;;;5.07;;
14153;SDS011;7157;53.144;7.570;2023-05-14T16:59:12;4.57;;;2.78;;
14153;SDS011;7157;53.144;7.570;2023-05-14T17:09:17;4.55;;;2.90;;
14153;SDS011;7157;53.144;7.570;2023-05-14T17:19:20;6.18;;;2.67;;
14153;SDS011;7157;53.144;7.570;2023-05-14T17:29:24;8.57;;;3.35;;
14153;SDS011;7157;53.144;7.570;2023-05-14T17:39:26;10.10;;;2.88;;
14153;SDS011;7157;53.144;7.570;2023-05-14T17:49:30;8.65;;;3.25;;
14153;SDS011;7157;53.144;7.570;2023-05-14T17:59:33;6.38;;;3.10;;
14153;SDS011;7157;53.144;7.570;2023-05-14T18:09:37;4.38;;;2.80;;
14153;SDS011;7157;53.144;7.570;2023-05-14T18:19:40;4.60;;;2.47;;
14153;SDS011;7157;53.144;7.570;2023-05-14T18:29:44;5.25;;;2.85;;
14153;SDS011;7157;53.144;7.570;2023-05-14T18:39:47;4.75;;;3.17;;
14153;SDS011;7157;53.144;7.570;2023-05-14T18:49:51;5.20;;;3.40;;
14153;SDS011;7157;53.144;7.570;2023-05-14T18:59:55;5.68;;;3.53;;
14153;SDS011;7157;53.144;7.570;2023-05-14T19:09:59;6.78;;;3.65;;
14153;SDS011;7157;53.144;7.570;2023-05-14T19:20:03;8.18;;;3.88;;
14153;SDS011;7157;53.144;7.570;2023-05-14T19:30:08;8.05;;;3.75;;
14153;SDS011;7157;53.144;7.570;2023-05-14T19:50:17;6.55;;;4.25;;
14153;SDS011;7157;53.144;7.570;2023-05-14T20:00:20;8.75;;;4.75;;
14153;SDS011;7157;53.144;7.570;2023-05-14T20:10:25;7.63;;;4.60;;
14153;SDS011;7157;53.144;7.570;2023-05-14T20:20:28;13.25;;;4.68;;
14153;SDS011;7157;53.144;7.570;2023-05-14T20:30:35;12.30;;;7.55;;
14153;SDS011;7157;53.144;7.570;2023-05-14T20:40:38;14.70;;;8.80;;
14153;SDS011;7157;53.144;7.570;2023-05-14T20:50:42;13.43;;;7.45;;
14153;SDS011;7157;53.144;7.570;2023-05-14T21:00:45;21.33;;;12.52;;
14153;SDS011;7157;53.144;7.570;2023-05-14T21:10:49;19.08;;;13.70;;
14153;SDS011;7157;53.144;7.570;2023-05-14T21:20:52;19.05;;;13.32;;
14153;SDS011;7157;53.144;7.570;2023-05-14T21:30:56;18.75;;;11.50;;
14153;SDS011;7157;53.144;7.570;2023-05-14T21:40:58;15.27;;;11.55;;
14153;SDS011;7157;53.144;7.570;2023-05-14T21:51:02;15.57;;;10.80;;
14153;SDS011;7157;53.144;7.570;2023-05-14T22:01:05;15.55;;;10.93;;
14153;SDS011;7157;53.144;7.570;2023-05-14T22:11:10;21.80;;;13.75;;
14153;SDS011;7157;53.144;7.570;2023-05-14T22:21:13;22.67;;;13.88;;
14153;SDS011;7157;53.144;7.570;2023-05-14T22:31:17;23.58;;;15.65;;
14153;SDS011;7157;53.144;7.570;2023-05-14T22:41:19;23.92;;;15.52;;
14153;SDS011;7157;53.144;7.570;2023-05-14T22:51:23;28.17;;;17.75;;
14153;SDS011;7157;53.144;7.570;2023-05-14T23:01:26;27.05;;;17.85;;
14153;SDS011;7157;53.144;7.570;2023-05-14T23:11:30;32.33;;;19.58;;
14153;SDS011;7157;53.144;7.570;2023-05-14T23:21:33;32.22;;;18.80;;
14153;SDS011;7157;53.144;7.570;2023-05-14T23:31:37;34.05;;;21.02;;
14153;SDS011;7157;53.144;7.570;2023-05-14T23:41:41;36.53;;;21.70;;
14153;SDS011;7157;53.144;7.570;2023-05-14T23:51:45;38.38;;;22.00;;
